30 de Agosto, Argentina
Current Conditions -  °F | °C
As of 6:00 PM on Thursday 27 Nov 2014 (Local Time) from SAOC Reporting Station
Broken Clouds Broken Clouds  
Wind Chill: 88°   Ceiling: 20000
Heat Index: 88°   Visibility: 6mi
Dew Point: 41°   Wind: 25mph
Humidity: 19%   Direction: 360°N
Pressure: 29.8"   Gusts: 38mph
Location:  36.27°S, 62.55°W
Report Text: SAOC 272100Z 36022G33KT 9999 FEW030TCUBKN200 31/05 Q1009
Loading
Personal Weather Stations






























Interactive Weather Map New forecast layout! Learn more

10-Day Weather Forecast

Advertisements
Track Severe Weather on mobile